createdAt,value
2022-08-20T00:02:10.617Z,57.35
2022-08-20T00:04:39.533Z,57.24
2022-08-20T00:07:06.388Z,56.98
2022-08-20T00:09:34.503Z,55.80
2022-08-20T00:12:03.747Z,56.35
2022-08-20T00:14:30.460Z,55.83
2022-08-20T00:17:00.419Z,54.77
2022-08-20T00:19:27.331Z,54.66
2022-08-20T00:21:58.118Z,53.81
2022-08-20T00:24:26.070Z,54.35
2022-08-20T00:26:53.046Z,55.46
2022-08-20T00:29:20.147Z,57.21
2022-08-20T00:31:47.028Z,56.62
2022-08-20T00:34:16.081Z,55.89
2022-08-20T00:36:43.567Z,53.65
2022-08-20T00:39:13.266Z,53.06
2022-08-20T00:41:41.601Z,52.78
2022-08-20T00:44:10.620Z,52.95
2022-08-20T00:46:37.939Z,52.15
2022-08-20T00:49:05.290Z,52.05
2022-08-20T00:51:33.356Z,52.06
2022-08-20T00:54:02.316Z,51.38
2022-08-20T00:56:31.351Z,51.00
2022-08-20T00:58:58.889Z,51.31
2022-08-20T01:01:32.936Z,50.78
2022-08-20T01:04:08.897Z,51.03
2022-08-20T01:06:36.373Z,50.69
2022-08-20T01:09:03.735Z,50.99
2022-08-20T01:11:31.146Z,51.02
2022-08-20T01:14:06.675Z,51.00
2022-08-20T01:16:33.183Z,50.64
2022-08-20T01:19:01.195Z,50.77
2022-08-20T01:21:28.505Z,50.76
2022-08-20T01:23:55.637Z,50.50
2022-08-20T01:26:24.509Z,51.16
2022-08-20T01:28:51.370Z,51.01
2022-08-20T01:31:18.081Z,51.01
2022-08-20T01:33:46.965Z,50.58
2022-08-20T01:36:14.126Z,50.82
2022-08-20T01:38:40.882Z,50.55
2022-08-20T01:41:28.378Z,50.48
2022-08-20T01:43:56.283Z,50.16
2022-08-20T01:46:27.749Z,49.71
2022-08-20T01:48:56.785Z,50.15
2022-08-20T01:51:23.522Z,50.23
2022-08-20T01:53:50.123Z,50.40
2022-08-20T01:56:17.354Z,50.79
2022-08-20T01:58:44.623Z,51.19
2022-08-20T02:01:18.195Z,51.11
2022-08-20T02:03:49.585Z,51.28
2022-08-20T02:06:18.748Z,51.91
2022-08-20T02:08:47.578Z,52.28
2022-08-20T02:11:16.556Z,52.06
2022-08-20T02:13:43.392Z,51.49
2022-08-20T02:16:11.640Z,51.75
2022-08-20T02:18:38.515Z,53.12
2022-08-20T02:21:05.278Z,54.93
2022-08-20T02:23:31.927Z,54.04
2022-08-20T02:25:58.963Z,53.16
2022-08-20T02:28:25.836Z,52.97
2022-08-20T02:30:52.665Z,53.39
2022-08-20T02:33:19.602Z,54.25
2022-08-20T02:35:50.927Z,53.40
2022-08-20T02:38:17.780Z,53.11
2022-08-20T02:40:51.768Z,53.14
2022-08-20T02:43:18.339Z,55.97
2022-08-20T02:45:45.245Z,56.99
2022-08-20T02:48:11.914Z,56.88
2022-08-20T02:50:39.054Z,57.45
2022-08-20T02:53:05.668Z,58.63
2022-08-20T02:55:32.517Z,56.86
2022-08-20T02:57:59.928Z,56.44
2022-08-20T03:00:27.151Z,57.26
2022-08-20T03:03:01.187Z,57.61
2022-08-20T03:05:28.694Z,57.14
2022-08-20T03:08:03.058Z,57.49
2022-08-20T03:13:22.716Z,55.08
2022-08-20T03:15:50.251Z,54.50
2022-08-20T03:18:17.755Z,53.92
2022-08-20T03:20:46.026Z,52.90
2022-08-20T03:23:15.532Z,52.82
2022-08-20T03:25:42.578Z,52.35
2022-08-20T03:28:09.495Z,52.46
2022-08-20T03:30:36.432Z,53.23
2022-08-20T03:33:03.906Z,54.35
2022-08-20T03:35:30.655Z,54.54
2022-08-20T03:37:57.756Z,54.79
2022-08-20T03:40:24.744Z,54.74
2022-08-20T03:42:51.374Z,56.63
2022-08-20T03:45:20.613Z,57.16
2022-08-20T03:47:47.783Z,57.64
2022-08-20T03:50:23.480Z,57.57
2022-08-20T03:52:50.385Z,60.45
2022-08-20T03:55:17.068Z,63.40
2022-08-20T03:57:44.456Z,61.40
2022-08-20T04:00:11.093Z,59.83
2022-08-20T04:02:39.443Z,58.38
2022-08-20T04:05:06.793Z,58.59
2022-08-20T04:07:33.613Z,59.51
2022-08-20T04:10:03.285Z,59.90
2022-08-20T04:12:38.030Z,61.56
2022-08-20T04:15:05.020Z,60.18
2022-08-20T04:17:34.393Z,59.57
2022-08-20T04:20:04.055Z,59.35
2022-08-20T04:22:30.814Z,59.21
2022-08-20T04:24:57.760Z,59.94
2022-08-20T04:27:24.731Z,59.20
2022-08-20T04:29:53.752Z,59.68
2022-08-20T04:32:21.095Z,59.23
2022-08-20T04:34:50.124Z,58.47
2022-08-20T04:37:17.533Z,58.46
2022-08-20T04:39:45.008Z,57.65
2022-08-20T04:42:12.121Z,57.92
2022-08-20T04:44:41.183Z,58.99
2022-08-20T04:47:10.601Z,60.19
2022-08-20T04:49:38.075Z,60.95
2022-08-20T04:52:05.892Z,59.31
2022-08-20T04:54:32.954Z,58.36
2022-08-20T04:56:59.735Z,58.66
2022-08-20T05:02:20.623Z,58.85
2022-08-20T05:04:47.311Z,59.77
2022-08-20T05:07:13.839Z,59.66
2022-08-20T05:09:44.139Z,59.24
2022-08-20T05:12:11.382Z,58.55
2022-08-20T05:14:38.452Z,58.37
2022-08-20T05:17:05.146Z,58.28
2022-08-20T05:19:34.799Z,59.46
2022-08-20T05:22:05.232Z,61.01
2022-08-20T05:24:33.840Z,60.29
2022-08-20T05:27:08.757Z,63.62
2022-08-20T05:29:46.805Z,62.63
2022-08-20T05:32:15.873Z,61.29
2022-08-20T05:34:42.422Z,60.52
2022-08-20T05:37:09.889Z,61.22
2022-08-20T05:39:43.483Z,60.35
2022-08-20T05:42:12.552Z,59.22
2022-08-20T05:44:41.563Z,59.96
2022-08-20T05:47:08.471Z,59.41
2022-08-20T05:49:37.395Z,60.04
2022-08-20T05:52:04.053Z,60.91
2022-08-20T05:54:37.942Z,59.85
2022-08-20T05:57:04.877Z,60.27
2022-08-20T05:59:31.791Z,60.54
2022-08-20T06:01:58.629Z,60.17
2022-08-20T06:04:25.538Z,60.29
2022-08-20T06:06:52.824Z,59.38
2022-08-20T06:09:30.784Z,60.50
2022-08-20T06:12:00.673Z,60.33
2022-08-20T06:14:27.193Z,60.06
2022-08-20T06:16:57.798Z,61.61
2022-08-20T06:19:32.401Z,62.82
2022-08-20T06:21:59.803Z,63.66
2022-08-20T06:24:26.555Z,64.91
2022-08-20T06:26:56.292Z,64.22
2022-08-20T06:29:23.222Z,63.66
2022-08-20T06:31:50.196Z,64.19
2022-08-20T06:34:17.177Z,62.59
2022-08-20T06:36:43.849Z,63.31
2022-08-20T06:39:11.314Z,62.92
2022-08-20T06:41:37.804Z,62.87
2022-08-20T06:44:05.009Z,62.35
2022-08-20T06:46:32.604Z,61.04
2022-08-20T06:48:59.261Z,59.85
2022-08-20T06:51:26.278Z,59.77
2022-08-20T06:53:53.029Z,62.26
2022-08-20T06:56:21.834Z,63.50
2022-08-20T06:58:48.780Z,64.17
2022-08-20T07:01:15.568Z,65.85
2022-08-20T07:03:55.787Z,64.90
2022-08-20T07:06:25.676Z,63.24
2022-08-20T07:08:53.489Z,62.09
2022-08-20T07:11:24.978Z,63.15
2022-08-20T07:13:54.555Z,62.19
2022-08-20T07:16:21.490Z,61.73
2022-08-20T07:18:48.100Z,62.69
2022-08-20T07:21:15.785Z,64.01
2022-08-20T07:23:42.381Z,64.04
2022-08-20T07:26:09.130Z,65.88
2022-08-20T07:28:36.540Z,65.79
2022-08-20T07:31:12.083Z,64.54
2022-08-20T07:33:40.823Z,63.21
2022-08-20T07:36:08.102Z,63.40
2022-08-20T07:38:37.166Z,64.74
2022-08-20T07:41:03.791Z,66.83
2022-08-20T07:43:35.895Z,66.05
2022-08-20T07:46:04.743Z,63.92
2022-08-20T07:51:45.495Z,61.22
2022-08-20T07:54:12.578Z,60.50
2022-08-20T07:56:39.508Z,60.98
2022-08-20T07:59:12.995Z,65.09
2022-08-20T08:02:07.225Z,66.49
2022-08-20T08:04:38.278Z,64.96
2022-08-20T08:07:05.412Z,61.99
2022-08-20T08:09:32.526Z,61.26
2022-08-20T08:12:01.643Z,59.05
2022-08-20T08:14:28.219Z,57.64
2022-08-20T08:16:55.068Z,59.22
2022-08-20T08:19:22.471Z,61.81
2022-08-20T08:21:59.687Z,59.58
2022-08-20T08:27:30.457Z,63.51
2022-08-20T08:30:00.829Z,63.76
2022-08-20T08:32:30.663Z,63.73
2022-08-20T08:34:59.062Z,63.30
2022-08-20T08:37:36.009Z,61.72
2022-08-20T08:40:07.891Z,59.47
2022-08-20T08:42:43.271Z,58.35
2022-08-20T08:45:11.174Z,56.87
2022-08-20T08:47:40.582Z,57.59
2022-08-20T08:50:21.853Z,58.64
2022-08-20T08:53:08.536Z,58.79
2022-08-20T08:55:41.667Z,57.73
2022-08-20T08:58:16.893Z,56.42
2022-08-20T09:00:56.253Z,56.86
2022-08-20T09:03:34.413Z,54.66
2022-08-20T09:06:08.671Z,53.72
2022-08-20T09:11:17.266Z,55.32
2022-08-20T09:13:52.978Z,53.82
2022-08-20T09:16:20.083Z,53.48
2022-08-20T09:21:35.434Z,53.83
2022-08-20T09:24:10.383Z,53.76
2022-08-20T09:26:39.143Z,52.93
2022-08-20T09:29:07.021Z,51.70
2022-08-20T09:31:36.338Z,52.97
2022-08-20T09:34:06.294Z,52.19
2022-08-20T09:36:35.241Z,52.37
2022-08-20T09:39:02.810Z,53.04
2022-08-20T09:41:30.293Z,51.55
2022-08-20T09:43:58.364Z,51.53
2022-08-20T09:46:28.631Z,49.69
2022-08-20T09:48:58.433Z,50.78
2022-08-20T09:51:25.474Z,50.66
2022-08-20T09:53:52.104Z,49.97
2022-08-20T09:56:19.277Z,50.73
2022-08-20T09:58:46.387Z,53.33
2022-08-20T10:01:15.127Z,53.42
2022-08-20T10:03:43.822Z,53.31
2022-08-20T10:06:11.253Z,52.30
2022-08-20T10:08:39.120Z,51.65
2022-08-20T10:11:06.314Z,52.65
2022-08-20T10:13:37.423Z,50.64
2022-08-20T10:16:08.406Z,50.53
2022-08-20T10:18:35.108Z,50.74
2022-08-20T10:21:05.444Z,52.44
2022-08-20T10:23:34.011Z,49.89
2022-08-20T10:26:01.103Z,50.99
2022-08-20T10:28:28.092Z,51.12
2022-08-20T10:30:55.440Z,53.52
2022-08-20T10:33:22.598Z,53.70
2022-08-20T10:35:50.013Z,52.39
2022-08-20T10:38:17.595Z,53.90
2022-08-20T10:40:52.363Z,55.03
2022-08-20T10:43:20.646Z,58.25
2022-08-20T10:45:47.750Z,56.87
2022-08-20T10:48:21.239Z,54.82
2022-08-20T10:50:49.231Z,52.77
2022-08-20T10:53:18.615Z,52.45
2022-08-20T10:55:45.565Z,50.12
2022-08-20T10:58:20.191Z,50.53
2022-08-20T11:00:50.402Z,51.09
2022-08-20T11:03:17.588Z,51.06
2022-08-20T11:05:45.252Z,50.83
2022-08-20T11:08:12.912Z,48.95
2022-08-20T11:10:41.104Z,49.99
2022-08-20T11:13:08.062Z,50.15
2022-08-20T11:15:42.177Z,49.97
2022-08-20T11:18:09.332Z,49.76
2022-08-20T11:20:43.270Z,50.89
2022-08-20T11:23:10.194Z,52.20
2022-08-20T11:25:37.415Z,51.86
2022-08-20T11:28:06.458Z,51.25
2022-08-20T11:30:34.860Z,50.81
2022-08-20T11:33:03.182Z,50.81
2022-08-20T11:35:49.268Z,49.79
2022-08-20T11:38:16.987Z,48.38
2022-08-20T11:40:43.960Z,49.96
2022-08-20T11:43:14.633Z,49.29
2022-08-20T11:45:46.193Z,50.23
2022-08-20T11:48:15.233Z,49.63
2022-08-20T11:50:43.635Z,49.08
2022-08-20T11:53:14.985Z,48.65
2022-08-20T11:55:41.970Z,50.58
2022-08-20T11:58:10.311Z,50.38
2022-08-20T12:00:37.501Z,51.63
2022-08-20T12:03:05.540Z,51.73
2022-08-20T12:05:36.623Z,51.14
2022-08-20T12:08:05.413Z,49.56
2022-08-20T12:10:35.117Z,51.00
2022-08-20T12:13:06.183Z,50.19
2022-08-20T12:15:35.301Z,49.41
2022-08-20T12:18:02.929Z,51.36
2022-08-20T12:20:29.916Z,50.16
2022-08-20T12:23:04.026Z,48.37
2022-08-20T12:25:38.006Z,50.08
2022-08-20T12:28:12.183Z,49.65
2022-08-20T12:30:39.714Z,49.58
2022-08-20T12:33:06.655Z,49.86
2022-08-20T12:35:33.262Z,47.94
2022-08-20T12:38:07.931Z,48.11
2022-08-20T12:43:52.029Z,46.38
2022-08-20T12:46:18.861Z,47.35
2022-08-20T12:48:45.790Z,46.74
2022-08-20T12:51:13.121Z,45.70
2022-08-20T12:53:40.116Z,45.53
2022-08-20T12:56:12.280Z,44.51
2022-08-20T12:58:39.789Z,44.26
2022-08-20T13:01:16.937Z,45.08
2022-08-20T13:03:45.123Z,45.20
2022-08-20T13:08:54.457Z,44.56
2022-08-20T13:11:42.723Z,44.49
2022-08-20T13:14:12.729Z,46.22
2022-08-20T13:16:47.469Z,46.28
2022-08-20T13:19:18.082Z,46.47
2022-08-20T13:21:45.015Z,46.07
2022-08-20T13:24:22.073Z,45.67
2022-08-20T13:26:49.425Z,45.33
2022-08-20T13:29:16.732Z,45.62
2022-08-20T13:31:50.520Z,45.57
2022-08-20T13:34:18.910Z,45.57
2022-08-20T13:36:46.387Z,44.69
2022-08-20T13:39:13.000Z,45.87
2022-08-20T13:41:40.662Z,46.58
2022-08-20T13:44:09.045Z,46.54
2022-08-20T13:46:36.247Z,47.64
2022-08-20T13:49:04.848Z,49.82
2022-08-20T13:51:31.744Z,47.56
2022-08-20T13:54:00.292Z,47.05
2022-08-20T13:56:34.393Z,47.01
2022-08-20T13:59:01.914Z,46.10
2022-08-20T14:01:28.586Z,45.43
2022-08-20T14:03:55.585Z,46.36
2022-08-20T14:06:24.483Z,45.47
2022-08-20T14:08:51.862Z,46.38
2022-08-20T14:11:18.820Z,46.04
2022-08-20T14:13:48.122Z,46.44
2022-08-20T14:16:27.379Z,46.67
2022-08-20T14:18:55.388Z,45.58
2022-08-20T14:21:22.527Z,45.07
2022-08-20T14:23:49.319Z,46.32
2022-08-20T14:26:23.436Z,46.33
2022-08-20T14:28:51.133Z,48.58
2022-08-20T14:31:18.124Z,47.67
2022-08-20T14:33:44.943Z,47.78
2022-08-20T14:36:20.240Z,47.15
2022-08-20T14:38:49.725Z,47.30
2022-08-20T14:41:16.787Z,47.10
2022-08-20T14:43:50.868Z,46.91
2022-08-20T14:46:18.278Z,48.86
2022-08-20T14:48:45.141Z,47.42
2022-08-20T14:51:20.301Z,45.79
2022-08-20T14:53:47.487Z,45.52
2022-08-20T14:56:18.173Z,47.13
2022-08-20T14:58:46.628Z,45.78
2022-08-20T15:01:20.767Z,45.75
2022-08-20T15:03:54.904Z,46.12
2022-08-20T15:06:28.986Z,46.50
2022-08-20T15:08:55.828Z,47.07
2022-08-20T15:11:34.153Z,47.08
2022-08-20T15:14:08.212Z,49.10
2022-08-20T15:16:40.189Z,52.69
2022-08-20T15:22:19.872Z,47.60
2022-08-20T15:24:46.731Z,48.00
2022-08-20T15:29:54.609Z,45.79
2022-08-20T15:32:22.707Z,43.73
2022-08-20T15:34:49.955Z,41.60
2022-08-20T15:37:17.057Z,41.64
2022-08-20T15:39:44.092Z,41.98
2022-08-20T15:42:11.610Z,41.85
2022-08-20T15:44:39.729Z,41.69
2022-08-20T15:47:08.537Z,42.29
2022-08-20T15:49:36.191Z,41.74
2022-08-20T15:52:03.257Z,41.96
2022-08-20T15:54:30.739Z,40.46
2022-08-20T15:56:59.872Z,40.74
2022-08-20T15:59:28.033Z,41.77
2022-08-20T16:01:56.848Z,42.44
2022-08-20T16:04:24.762Z,41.39
2022-08-20T16:06:51.577Z,42.27
2022-08-20T16:09:25.955Z,42.64
2022-08-20T16:11:52.630Z,41.72
2022-08-20T16:14:19.417Z,41.16
2022-08-20T16:17:01.215Z,41.77
2022-08-20T16:19:28.548Z,41.29
2022-08-20T16:21:57.649Z,40.27
2022-08-20T16:24:31.513Z,40.43
2022-08-20T16:30:25.230Z,39.52
2022-08-20T16:32:53.920Z,39.48
2022-08-20T16:51:23.393Z,37.59
2022-08-20T16:53:51.220Z,37.41
2022-08-20T16:56:18.928Z,37.30
2022-08-20T16:58:45.929Z,39.06
2022-08-20T17:01:13.482Z,40.08
2022-08-20T17:03:41.001Z,40.49
2022-08-20T17:06:07.977Z,41.74
2022-08-20T17:08:38.655Z,40.64
2022-08-20T17:11:11.944Z,41.20
2022-08-20T17:13:38.754Z,42.79
2022-08-20T17:16:06.546Z,44.93
2022-08-20T17:18:33.703Z,45.33
2022-08-20T17:21:00.414Z,44.49
2022-08-20T17:23:27.219Z,44.39
2022-08-20T17:25:54.170Z,46.15
2022-08-20T17:28:23.156Z,42.54
2022-08-20T17:30:50.198Z,44.21
2022-08-20T17:33:21.765Z,42.53
2022-08-20T17:35:48.444Z,40.47
2022-08-20T17:38:18.521Z,39.25
2022-08-20T17:40:49.839Z,40.06
2022-08-20T17:43:16.430Z,39.43
2022-08-20T17:45:43.343Z,39.13
2022-08-20T17:48:10.216Z,39.14
2022-08-20T17:50:37.611Z,38.93
2022-08-20T17:53:04.708Z,39.01
2022-08-20T17:55:31.337Z,38.58
2022-08-20T17:57:58.369Z,38.77
2022-08-20T18:00:25.974Z,39.94
2022-08-20T18:02:57.050Z,42.79
2022-08-20T18:05:23.877Z,44.12
2022-08-20T18:08:04.856Z,43.69
2022-08-20T18:10:41.664Z,43.91
2022-08-20T18:16:18.323Z,47.66
2022-08-20T18:21:36.493Z,47.46
2022-08-20T18:24:10.620Z,48.96
2022-08-20T18:26:40.251Z,48.22
2022-08-20T18:29:14.178Z,47.53
2022-08-20T18:34:34.360Z,46.79
2022-08-20T18:37:11.174Z,46.52
2022-08-20T18:39:38.263Z,45.98
2022-08-20T18:42:06.215Z,46.75
2022-08-20T18:44:41.553Z,47.19
2022-08-20T18:47:12.338Z,48.23
2022-08-20T18:49:44.352Z,48.00
2022-08-20T18:52:17.295Z,47.69
2022-08-20T19:01:11.316Z,47.22
2022-08-20T19:03:41.927Z,46.67
2022-08-20T19:09:08.389Z,46.66
2022-08-20T19:11:35.465Z,48.21
2022-08-20T19:14:04.994Z,47.11
2022-08-20T19:16:36.038Z,48.73
2022-08-20T19:19:05.102Z,49.44
2022-08-20T19:24:17.725Z,47.03
2022-08-20T19:26:50.979Z,46.96
2022-08-20T19:35:30.337Z,48.91
2022-08-20T19:38:22.737Z,49.77
2022-08-20T19:41:11.639Z,49.41
2022-08-20T19:46:59.799Z,51.39
2022-08-20T19:49:27.295Z,49.86
2022-08-20T19:52:16.891Z,49.19
2022-08-20T19:54:43.386Z,48.10
2022-08-20T19:57:10.203Z,47.04
2022-08-20T19:59:38.012Z,46.78
2022-08-20T20:02:20.012Z,46.94
2022-08-20T20:04:55.421Z,47.43
2022-08-20T20:07:30.503Z,47.19
2022-08-20T20:09:58.738Z,47.39
2022-08-20T20:12:28.469Z,46.68
2022-08-20T20:48:33.749Z,47.91
2022-08-20T20:51:00.764Z,46.99
2022-08-20T20:53:29.329Z,46.21
2022-08-20T20:56:41.334Z,46.92
2022-08-20T20:59:13.530Z,46.70
2022-08-20T21:17:28.832Z,48.09
2022-08-20T21:19:55.678Z,48.79
2022-08-20T21:22:22.676Z,48.23
2022-08-20T21:24:50.784Z,47.88
2022-08-20T21:32:52.078Z,47.83
2022-08-20T21:35:21.074Z,47.82
2022-08-20T21:37:48.123Z,47.79
2022-08-20T21:46:01.493Z,47.63
2022-08-20T21:48:29.990Z,48.91
2022-08-20T21:50:57.478Z,48.84
2022-08-20T21:53:24.492Z,48.35
2022-08-20T21:55:52.057Z,48.24
2022-08-20T21:58:18.724Z,49.26
2022-08-20T22:00:46.241Z,49.40
2022-08-20T22:03:13.371Z,50.00
2022-08-20T22:05:45.406Z,50.09
2022-08-20T22:08:18.398Z,50.79
2022-08-20T22:10:45.426Z,51.63
2022-08-20T22:13:12.687Z,52.21
2022-08-20T22:15:39.254Z,52.14
2022-08-20T22:18:06.170Z,50.61
2022-08-20T22:20:33.506Z,49.56
2022-08-20T22:23:00.285Z,49.22
2022-08-20T22:25:26.909Z,49.98
2022-08-20T22:27:57.434Z,51.29
2022-08-20T22:30:25.791Z,51.27
2022-08-20T22:32:57.157Z,51.14
2022-08-20T22:35:24.188Z,50.51
2022-08-20T22:37:51.087Z,50.78
2022-08-20T22:40:18.387Z,49.74
2022-08-20T22:42:45.843Z,49.98
2022-08-20T22:45:16.178Z,49.27
2022-08-20T22:47:42.959Z,50.60
2022-08-20T22:50:11.041Z,49.45
2022-08-20T22:52:41.251Z,50.13
2022-08-20T22:55:09.656Z,50.70
2022-08-20T22:57:36.658Z,48.86
2022-08-20T23:00:10.820Z,48.76
2022-08-20T23:02:37.756Z,47.90
2022-08-20T23:05:07.472Z,47.76
2022-08-20T23:07:37.936Z,47.77
2022-08-20T23:10:04.562Z,47.89
2022-08-20T23:12:31.891Z,47.44
2022-08-20T23:14:59.292Z,47.69
2022-08-20T23:17:26.870Z,47.56
2022-08-20T23:19:53.753Z,49.81
2022-08-20T23:22:20.374Z,49.08
2022-08-20T23:24:47.056Z,48.59
2022-08-20T23:27:15.650Z,50.28
2022-08-20T23:29:43.170Z,50.65
2022-08-20T23:32:10.560Z,50.27
2022-08-20T23:34:37.300Z,49.18
2022-08-20T23:37:04.178Z,49.48
2022-08-20T23:39:31.089Z,49.26
2022-08-20T23:41:57.740Z,48.49
2022-08-20T23:44:27.033Z,48.10
2022-08-20T23:46:58.480Z,47.66
2022-08-20T23:49:27.912Z,48.31
2022-08-20T23:52:01.885Z,47.25
2022-08-20T23:54:28.796Z,47.18
2022-08-20T23:56:57.005Z,47.08
2022-08-20T23:59:34.234Z,47.91
